Airfield :
LOGIN :

Register | Disclaimer

   EN    FR    IT 

 










Legend :    VFR   Marginal VFR   IFR   Intensive IFR   Very Intensive IFR
Visi :
Ceiling :
>= 8 km
>= 3000ft
5 to 8 km
1000 to 3000 ft
1500m to 5 km
500 to 1000 ft
800 to 1500m
200 to 500 ft
< 800m
< 200 ft
Symbols :   Thunderstorms  Fog  Heavy snow  Heavy precipitations  Wind > 20 kt
SIGMETs :     Misc.  Thunderstorms  Icing  Turbulence  Mountain Waves  Volcanic Ashes






- Airport Elevation : 681 ft
- IATA code : LBA


EGNM - Leeds Bradford

CURRENT METAR :
  • 231420Z 01009KT 330V050 9999 SCT023 SCT040 08/01 Q1023

EXPIRED METARs :
  • 231350Z 01012KT 350V050 9999 SCT018 SCT030 08/00 Q1023
  • 231320Z 02009KT 9999 SCT016 BKN030 08/02 Q1023
  • 231250Z 36011KT 9999 SCT016 SCT023 07/03 Q1024
  • 231220Z 36010KT 330V030 9999 SCT019 SCT030 07/04 Q1024
  • 231150Z 02013KT 350V060 9999 SCT024 SCT040 06/03 Q1024
  • 231120Z 02008KT 360V060 9999 SCT024 SCT040 07/03 Q1024
  • 231050Z 01011KT 340V040 9999 SCT028 SCT033 07/02 Q1024
  • 231020Z 01013KT 340V040 9999 SCT019 SCT025 07/01 Q1024
  • 230950Z 01013KT 9999 VCSH SCT010 BKN014 06/02 Q1024
  • 230920Z 36011KT 330V040 9999 -RADZ SCT010 BKN012 06/03 Q1025

TAF TAF EGNM
Valid from the 23 at 12:00 until the 24 at 12:00 UTC


231102Z 2312/2412 01010KT 9999 SCT025
TEMPO 2312/2315 7000 -RADZ BKN014
BECMG 2321/2324 VRB03KT
BECMG 2409/2412 02010KT
ATIS : +44 113 250 9696 (x2489)



MET'MAP, your aeronautical weather chart ! - Copyright ORBIFLY December 2007 - Disclaimer

ORBIFLY MET'MAP TEAM :

Programming & Development : Alexandra Zaïnal
Original concept : Baudouin d'Aumeries
Technical & hardware support : Manuel Goepfert
Assistance : Marc-Olivier Méhu




SOURCES & CREDITS :

   NOAA